Time;durP1;ratioP1;P1;durP2;ratioP2;P2;SDS_P1;SDS_P2;PMS_P1;PMS_P2;Temp;Humidity;BMP_temperature;BMP_pressure;BME280_temperature;BME280_humidity;BME280_pressure;Samples;Min_cycle;Max_cycle;Signal;HPM_P1;HPM_P2
2023/07/03 00:00:17;;;;;;;4.00;3.60;;;25.60;40.80;;;;;;4990851;28;20416;-73
2023/07/03 00:02:46;;;;;;;6.27;4.37;;;25.60;40.80;;;;;;4970709;28;20479;-74
2023/07/03 00:05:16;;;;;;;5.20;3.73;;;25.60;40.80;;;;;;4982592;28;20478;-74
2023/07/03 00:07:46;;;;;;;5.50;3.80;;;25.60;40.50;;;;;;4976231;28;20481;-74
2023/07/03 00:10:14;;;;;;;6.53;4.10;;;25.60;40.70;;;;;;4985364;28;20469;-73
2023/07/03 00:12:42;;;;;;;4.90;3.77;;;25.60;40.70;;;;;;4999604;28;20520;-74
2023/07/03 00:15:11;;;;;;;5.57;3.70;;;25.50;40.50;;;;;;4975722;28;20517;-75
2023/07/03 00:17:39;;;;;;;8.20;4.03;;;25.50;40.70;;;;;;4991652;28;20491;-74
2023/07/03 00:20:11;;;;;;;6.10;3.93;;;25.50;40.80;;;;;;4978445;28;20430;-75
2023/07/03 00:22:41;;;;;;;7.20;4.47;;;25.50;40.70;;;;;;4988837;28;20537;-74
2023/07/03 00:25:09;;;;;;;5.30;3.40;;;25.50;40.60;;;;;;4989869;28;20455;-72
2023/07/03 00:27:37;;;;;;;5.80;3.50;;;25.50;40.70;;;;;;4986328;28;20480;-75
2023/07/03 00:30:08;;;;;;;4.80;3.80;;;25.50;40.60;;;;;;4986101;28;20524;-75
2023/07/03 00:32:36;;;;;;;5.50;4.27;;;25.50;41.30;;;;;;4984400;28;20530;-75
2023/07/03 00:35:04;;;;;;;5.47;4.00;;;25.40;40.70;;;;;;4986730;28;20754;-74
2023/07/03 00:37:32;;;;;;;5.53;3.73;;;25.50;40.70;;;;;;4994970;28;20547;-75
2023/07/03 00:40:02;;;;;;;6.30;3.90;;;25.40;40.50;;;;;;4994571;28;20475;-75
2023/07/03 00:42:31;;;;;;;6.10;3.80;;;25.40;40.60;;;;;;4990898;28;20495;-74
2023/07/03 00:44:58;;;;;;;5.10;3.67;;;25.40;40.50;;;;;;4994283;28;20455;-74
2023/07/03 00:47:28;;;;;;;6.30;4.03;;;25.40;40.70;;;;;;4995048;28;20484;-76
2023/07/03 00:49:56;;;;;;;6.37;3.67;;;25.40;40.60;;;;;;4993906;28;21120;-74
2023/07/03 00:52:24;;;;;;;6.23;3.77;;;25.40;40.40;;;;;;4994642;28;20536;-74
2023/07/03 00:54:53;;;;;;;8.53;4.40;;;25.30;40.70;;;;;;4995071;28;20997;-75
2023/07/03 00:57:23;;;;;;;9.77;6.00;;;25.30;40.50;;;;;;4993954;28;20470;-76
2023/07/03 00:59:51;;;;;;;12.67;6.77;;;25.30;40.60;;;;;;4984480;28;20455;-75
2023/07/03 01:02:20;;;;;;;14.53;9.67;;;25.30;40.80;;;;;;4994205;28;20802;-74
2023/07/03 01:04:50;;;;;;;13.03;10.10;;;25.30;40.80;;;;;;4994219;28;20466;-75
2023/07/03 01:07:20;;;;;;;23.80;14.47;;;25.30;40.70;;;;;;4994959;28;20547;-74
2023/07/03 01:09:50;;;;;;;14.73;10.30;;;25.20;40.50;;;;;;4990654;28;20517;-74
2023/07/03 01:12:18;;;;;;;18.20;10.97;;;25.20;40.80;;;;;;4993154;28;20412;-75
2023/07/03 01:14:47;;;;;;;18.00;12.87;;;25.20;40.90;;;;;;4988137;28;20560;-76
2023/07/03 01:17:14;;;;;;;18.63;12.30;;;25.20;40.90;;;;;;4993822;28;20541;-75
2023/07/03 01:19:45;;;;;;;22.57;15.90;;;25.20;41.00;;;;;;4999606;28;20524;-74
2023/07/03 01:22:15;;;;;;;25.27;16.57;;;25.20;40.80;;;;;;4993533;28;20525;-75
2023/07/03 01:24:44;;;;;;;25.93;17.17;;;25.10;40.70;;;;;;4993673;28;20832;-75
2023/07/03 01:27:13;;;;;;;26.70;19.47;;;25.10;41.00;;;;;;4993881;28;20529;-75
2023/07/03 01:29:41;;;;;;;28.60;18.57;;;25.10;40.90;;;;;;4993926;28;20442;-74
2023/07/03 01:32:10;;;;;;;32.03;19.10;;;25.00;40.80;;;;;;4989825;28;20540;-75
2023/07/03 01:34:38;;;;;;;28.97;19.87;;;25.00;41.10;;;;;;5000776;28;20463;-74
2023/07/03 01:37:06;;;;;;;29.37;20.17;;;25.00;41.10;;;;;;4992273;28;20464;-74
2023/07/03 01:39:34;;;;;;;29.67;20.37;;;25.00;41.00;;;;;;4992302;28;20443;-75
2023/07/03 01:42:05;;;;;;;31.70;22.03;;;25.00;40.90;;;;;;4992284;28;20443;-75
2023/07/03 01:44:33;;;;;;;32.87;21.90;;;25.00;40.80;;;;;;4991916;28;20477;-75
2023/07/03 01:47:05;;;;;;;35.63;21.83;;;25.00;41.60;;;;;;4992192;28;20524;-74
2023/07/03 01:49:33;;;;;;;29.87;21.47;;;24.90;41.00;;;;;;4989332;28;20532;-76
2023/07/03 01:52:05;;;;;;;32.93;20.43;;;24.90;40.90;;;;;;4993858;28;20452;-76
2023/07/03 01:54:36;;;;;;;34.03;21.57;;;24.90;41.30;;;;;;4993181;28;20457;-74
2023/07/03 01:57:06;;;;;;;32.57;22.63;;;24.90;41.10;;;;;;4993268;28;20655;-75
2023/07/03 01:59:34;;;;;;;33.00;20.80;;;24.90;41.10;;;;;;4993433;28;20447;-76
2023/07/03 02:02:05;;;;;;;31.83;20.43;;;24.80;41.30;;;;;;4986079;28;20874;-75
2023/07/03 02:04:34;;;;;;;34.83;22.77;;;24.90;41.10;;;;;;4985676;28;20576;-74
2023/07/03 02:07:03;;;;;;;32.67;20.50;;;24.80;41.10;;;;;;4981527;28;20433;-75
2023/07/03 02:09:31;;;;;;;31.43;20.50;;;24.80;41.20;;;;;;4985189;28;20496;-75
2023/07/03 02:11:59;;;;;;;30.50;20.50;;;24.80;40.90;;;;;;4993189;28;20517;-74
2023/07/03 02:14:29;;;;;;;31.03;20.40;;;24.80;41.00;;;;;;4992485;28;20488;-76
2023/07/03 02:16:57;;;;;;;29.30;19.10;;;24.70;41.40;;;;;;4992777;28;20433;-78
2023/07/03 02:19:28;;;;;;;33.47;21.00;;;24.70;41.30;;;;;;4992550;28;20448;-75
2023/07/03 02:21:56;;;;;;;30.80;19.43;;;24.80;41.40;;;;;;4992911;28;20508;-75
2023/07/03 02:24:24;;;;;;;27.83;19.37;;;24.70;41.20;;;;;;4987999;28;20488;-75
2023/07/03 02:26:52;;;;;;;30.63;18.30;;;24.70;41.30;;;;;;4999620;28;20528;-76
2023/07/03 02:29:20;;;;;;;27.10;18.67;;;24.70;41.30;;;;;;4993810;28;20472;-75
2023/07/03 02:31:49;;;;;;;25.00;16.90;;;24.60;41.30;;;;;;4992780;28;20511;-75
2023/07/03 02:34:17;;;;;;;27.47;18.23;;;24.60;41.30;;;;;;4991832;28;20500;-75
2023/07/03 02:36:46;;;;;;;30.80;17.57;;;24.60;41.40;;;;;;4992495;28;20416;-75
2023/07/03 02:39:14;;;;;;;27.20;17.37;;;24.60;41.50;;;;;;4992754;28;20449;-75
2023/07/03 02:41:42;;;;;;;26.87;18.27;;;24.60;41.40;;;;;;4993964;28;20508;-75
2023/07/03 02:44:11;;;;;;;22.80;15.87;;;24.60;41.40;;;;;;4992431;28;20477;-75
2023/07/03 02:46:39;;;;;;;25.47;16.00;;;24.60;41.50;;;;;;4992319;28;20536;-75
2023/07/03 02:49:09;;;;;;;22.73;15.93;;;24.60;41.50;;;;;;4992352;28;20408;-75
2023/07/03 02:51:38;;;;;;;27.70;17.20;;;24.60;41.40;;;;;;4992312;28;20437;-74
2023/07/03 02:54:06;;;;;;;22.47;15.00;;;24.60;41.70;;;;;;4991926;28;20500;-75
2023/07/03 02:56:35;;;;;;;24.17;15.57;;;24.60;41.70;;;;;;4995043;28;20433;-74
2023/07/03 02:59:03;;;;;;;20.77;14.80;;;24.60;41.40;;;;;;4989547;28;20480;-75
2023/07/03 03:01:31;;;;;;;24.97;15.10;;;24.50;41.60;;;;;;4999429;28;20456;-75
2023/07/03 03:03:59;;;;;;;27.33;15.20;;;24.60;41.60;;;;;;4984916;28;20528;-75
2023/07/03 03:06:28;;;;;;;22.37;14.43;;;24.60;41.60;;;;;;4995461;28;20485;-74
2023/07/03 03:08:56;;;;;;;23.10;14.97;;;24.60;41.60;;;;;;4991946;28;20464;-75
2023/07/03 03:11:24;;;;;;;21.60;13.80;;;24.60;41.40;;;;;;4991634;28;20465;-76
2023/07/03 03:13:52;;;;;;;19.80;13.33;;;24.50;41.40;;;;;;4986657;28;20527;-75
2023/07/03 03:16:20;;;;;;;20.87;12.60;;;24.50;41.60;;;;;;4989017;28;20458;-76
2023/07/03 03:18:48;;;;;;;21.20;13.00;;;24.50;41.60;;;;;;4991933;28;20529;-75
2023/07/03 03:21:16;;;;;;;20.00;13.00;;;24.60;41.70;;;;;;4991756;28;20442;-75
2023/07/03 03:23:46;;;;;;;17.87;11.97;;;24.50;41.40;;;;;;4991670;28;20516;-74
2023/07/03 03:26:14;;;;;;;18.93;11.60;;;24.50;41.80;;;;;;4991519;28;20481;-77
2023/07/03 03:28:42;;;;;;;20.00;12.43;;;24.50;41.60;;;;;;4991928;28;20524;-75
2023/07/03 03:31:10;;;;;;;20.23;11.90;;;24.60;41.50;;;;;;4986838;28;20532;-75
2023/07/03 03:33:38;;;;;;;19.47;12.37;;;24.50;41.50;;;;;;4983465;28;20513;-76
2023/07/03 03:36:06;;;;;;;18.90;11.80;;;24.60;41.50;;;;;;4991463;28;20453;-74
2023/07/03 03:38:34;;;;;;;16.33;10.60;;;24.50;41.50;;;;;;4991689;28;20420;-75
2023/07/03 03:41:04;;;;;;;25.50;11.53;;;24.50;41.50;;;;;;4992073;28;20428;-75
2023/07/03 03:43:32;;;;;;;20.77;10.90;;;24.50;41.50;;;;;;4991782;28;20441;-75
2023/07/03 03:46:01;;;;;;;17.00;10.03;;;24.60;41.50;;;;;;4995469;28;20548;-75
2023/07/03 03:48:30;;;;;;;15.83;10.70;;;24.50;41.40;;;;;;4993288;28;20822;-75
2023/07/03 03:51:00;;;;;;;15.00;10.10;;;24.50;41.50;;;;;;4995699;28;20524;-75
2023/07/03 03:53:28;;;;;;;13.30;9.63;;;24.50;41.50;;;;;;4995544;28;20452;-76
2023/07/03 03:55:55;;;;;;;13.53;9.80;;;24.50;41.50;;;;;;4995167;28;20491;-76
2023/07/03 03:58:25;;;;;;;16.90;10.23;;;24.50;41.40;;;;;;4995690;28;20441;-75
2023/07/03 04:00:53;;;;;;;13.53;9.47;;;24.50;41.50;;;;;;4995260;28;20433;-75
2023/07/03 04:03:21;;;;;;;13.83;9.87;;;24.50;41.60;;;;;;4988732;28;20458;-75
2023/07/03 04:05:49;;;;;;;15.83;9.80;;;24.50;41.60;;;;;;4991778;28;20509;-75
2023/07/03 04:08:17;;;;;;;14.50;9.07;;;24.50;41.70;;;;;;4990266;28;20469;-75
2023/07/03 04:10:45;;;;;;;13.63;8.77;;;24.60;41.60;;;;;;4995088;28;20930;-76
2023/07/03 04:13:13;;;;;;;12.50;8.60;;;24.50;41.80;;;;;;4994993;28;20448;-76
2023/07/03 04:15:51;;;;;;;14.17;8.47;;;24.50;41.60;;;;;;4986808;28;20488;-75
2023/07/03 04:18:20;;;;;;;15.70;9.20;;;24.50;41.80;;;;;;4994955;28;20440;-75
2023/07/03 04:20:48;;;;;;;11.73;7.63;;;24.50;41.80;;;;;;4992478;28;20527;-76
2023/07/03 04:23:16;;;;;;;12.70;8.60;;;24.60;41.90;;;;;;4994931;28;20437;-75
2023/07/03 04:25:44;;;;;;;15.03;9.23;;;24.60;41.80;;;;;;4995272;28;20591;-76
2023/07/03 04:28:12;;;;;;;13.20;7.83;;;24.60;41.80;;;;;;4995086;28;20445;-75
2023/07/03 04:30:40;;;;;;;15.03;7.50;;;24.60;41.80;;;;;;4998454;28;20437;-74
2023/07/03 04:33:09;;;;;;;12.10;7.97;;;24.60;41.80;;;;;;4994859;28;20474;-75
2023/07/03 04:35:37;;;;;;;12.30;7.90;;;24.60;41.70;;;;;;4994214;28;20461;-74
2023/07/03 04:38:05;;;;;;;11.00;7.60;;;24.70;41.80;;;;;;4986348;28;20466;-75
2023/07/03 04:40:33;;;;;;;15.10;7.43;;;24.70;41.80;;;;;;4994595;28;20956;-75
2023/07/03 04:43:01;;;;;;;13.83;7.17;;;24.70;41.70;;;;;;4994755;28;20529;-75
2023/07/03 04:45:31;;;;;;;13.90;7.00;;;24.80;41.70;;;;;;4994355;28;20498;-76
2023/07/03 04:47:59;;;;;;;11.77;7.20;;;24.80;41.60;;;;;;4994740;28;20524;-75
2023/07/03 04:50:29;;;;;;;11.43;6.40;;;24.80;41.80;;;;;;4994341;28;20508;-77
2023/07/03 04:52:56;;;;;;;11.13;6.93;;;24.80;41.80;;;;;;4994631;28;20480;-77
2023/07/03 04:55:26;;;;;;;12.60;6.53;;;24.80;41.90;;;;;;4994280;28;20460;-74
2023/07/03 04:57:53;;;;;;;8.93;5.70;;;24.80;41.80;;;;;;4991062;28;20439;-75
2023/07/03 05:00:21;;;;;;;10.43;6.47;;;24.80;42.00;;;;;;5002174;28;20445;-75
2023/07/03 05:02:49;;;;;;;11.30;6.53;;;24.90;42.20;;;;;;4994661;28;20475;-77
2023/07/03 05:05:20;;;;;;;10.27;5.87;;;24.90;41.90;;;;;;4994110;28;20431;-77
2023/07/03 05:07:49;;;;;;;10.87;5.70;;;24.90;42.00;;;;;;4994021;28;20800;-75
2023/07/03 05:10:17;;;;;;;10.97;5.80;;;24.90;42.00;;;;;;4994303;28;20495;-74
2023/07/03 05:12:45;;;;;;;10.53;6.00;;;24.90;42.00;;;;;;4984347;28;20458;-74
2023/07/03 05:22:49;;;;;;;10.37;5.43;;;24.90;42.20;;;;;;4994038;28;20453;-75
2023/07/03 05:28:57;;;;;;;12.67;5.60;;;24.90;42.40;;;;;;4987020;28;20462;-74
2023/07/03 05:31:26;;;;;;;11.13;5.60;;;24.80;42.50;;;;;;4993932;28;21009;-75
2023/07/03 05:33:54;;;;;;;9.03;4.60;;;24.90;42.60;;;;;;4994253;28;20437;-75
2023/07/03 05:36:22;;;;;;;9.33;4.90;;;24.90;42.60;;;;;;4989062;28;20436;-76
2023/07/03 05:38:52;;;;;;;8.80;5.10;;;24.90;42.70;;;;;;4993604;28;20544;-74
2023/07/03 05:41:20;;;;;;;10.17;4.87;;;24.90;42.70;;;;;;4993739;28;20481;-75
2023/07/03 05:43:48;;;;;;;8.23;4.40;;;24.90;42.60;;;;;;4996742;28;20429;-75
2023/07/03 05:46:16;;;;;;;10.50;4.70;;;24.90;42.80;;;;;;4989935;28;20485;-74
2023/07/03 05:48:46;;;;;;;9.13;4.60;;;25.00;42.80;;;;;;4991101;28;20795;-75
2023/07/03 05:51:14;;;;;;;9.80;4.80;;;25.00;42.80;;;;;;4988715;28;20469;-75
2023/07/03 05:53:42;;;;;;;9.50;4.27;;;25.00;42.60;;;;;;4995587;28;20445;-75
2023/07/03 05:56:13;;;;;;;7.70;4.07;;;25.00;42.70;;;;;;4998283;28;20467;-75
2023/07/03 05:58:41;;;;;;;7.10;4.00;;;25.00;42.80;;;;;;4993334;28;20535;-74
2023/07/03 06:01:09;;;;;;;12.47;4.63;;;25.00;42.70;;;;;;4993478;28;20420;-74
2023/07/03 06:03:37;;;;;;;9.83;4.47;;;25.00;42.80;;;;;;4990119;28;20461;-75
2023/07/03 06:06:06;;;;;;;10.80;4.30;;;25.00;42.90;;;;;;5001457;28;20519;-75
2023/07/03 06:08:33;;;;;;;8.00;3.93;;;25.00;42.80;;;;;;4992722;28;20496;-75
2023/07/03 06:11:01;;;;;;;9.63;4.00;;;25.00;42.80;;;;;;4993079;28;20433;-74
2023/07/03 06:13:30;;;;;;;6.30;3.47;;;25.00;42.80;;;;;;4993255;28;20500;-75
2023/07/03 06:15:58;;;;;;;7.60;3.50;;;25.00;42.80;;;;;;4993208;28;20455;-75
2023/07/03 06:18:27;;;;;;;7.67;4.00;;;25.00;42.90;;;;;;4993284;28;20418;-74
2023/07/03 06:20:54;;;;;;;7.33;3.77;;;25.00;43.00;;;;;;4977391;28;20478;-74
2023/07/03 06:23:22;;;;;;;9.90;4.23;;;25.10;43.00;;;;;;4996116;28;20446;-74
2023/07/03 06:25:51;;;;;;;7.60;3.87;;;25.10;43.00;;;;;;4993192;28;20460;-75
2023/07/03 06:28:19;;;;;;;9.70;3.93;;;25.10;42.80;;;;;;4992714;28;20451;-75
2023/07/03 06:30:49;;;;;;;8.90;3.50;;;25.20;43.00;;;;;;4990374;28;20496;-74
2023/07/03 06:33:18;;;;;;;8.03;4.03;;;25.20;42.80;;;;;;4981565;28;20473;-75
2023/07/03 06:35:50;;;;;;;7.33;3.67;;;25.20;42.90;;;;;;4987769;28;21024;-79
2023/07/03 06:38:19;;;;;;;8.13;3.77;;;25.30;42.90;;;;;;4988659;28;20449;-74
2023/07/03 06:40:55;;;;;;;10.60;3.63;;;25.20;42.80;;;;;;4993708;28;20491;-76
2023/07/03 06:43:23;;;;;;;4.87;3.37;;;25.30;42.90;;;;;;4990726;28;20475;-75
2023/07/03 06:45:53;;;;;;;7.57;3.40;;;25.30;42.80;;;;;;4992704;28;20871;-74
2023/07/03 06:48:24;;;;;;;5.50;3.00;;;25.30;42.90;;;;;;4992644;28;20452;-77
2023/07/03 06:51:01;;;;;;;6.83;3.60;;;25.40;43.00;;;;;;4991008;28;20416;-75
2023/07/03 06:53:29;;;;;;;8.90;3.30;;;25.50;42.90;;;;;;4987655;28;20547;-77
2023/07/03 06:55:57;;;;;;;6.10;3.37;;;25.50;42.80;;;;;;4989857;28;20485;-77
2023/07/03 06:58:26;;;;;;;9.03;3.27;;;25.60;42.90;;;;;;4988914;28;20408;-75
2023/07/03 07:00:56;;;;;;;7.67;3.90;;;25.70;42.70;;;;;;4988346;28;20450;-75
2023/07/03 07:03:24;;;;;;;6.83;3.17;;;25.70;42.50;;;;;;4984046;28;20421;-75
2023/07/03 07:05:54;;;;;;;7.00;3.50;;;25.80;42.60;;;;;;4987064;28;20472;-75
2023/07/03 07:08:23;;;;;;;8.70;3.60;;;25.90;42.60;;;;;;4980907;28;20897;-74
2023/07/03 07:10:51;;;;;;;7.23;2.93;;;25.90;42.50;;;;;;4980867;28;20521;-74
2023/07/03 07:13:19;;;;;;;6.13;2.80;;;26.00;42.50;;;;;;4977563;28;20950;-74
2023/07/03 07:15:47;;;;;;;5.97;3.00;;;26.00;42.30;;;;;;4990151;28;20489;-75
2023/07/03 07:18:17;;;;;;;5.83;2.93;;;26.00;42.30;;;;;;4985299;28;20430;-75
2023/07/03 07:20:44;;;;;;;6.70;3.17;;;26.10;42.40;;;;;;4982462;28;20412;-76
2023/07/03 07:23:12;;;;;;;6.00;2.70;;;26.10;42.40;;;;;;4982207;28;20477;-76
2023/07/03 07:25:40;;;;;;;5.10;2.80;;;26.10;42.50;;;;;;4984069;28;20893;-78
2023/07/03 07:28:08;;;;;;;6.90;2.40;;;26.10;42.40;;;;;;4973747;28;20485;-75
2023/07/03 07:30:37;;;;;;;5.33;2.40;;;26.20;42.40;;;;;;4984136;28;20451;-78
2023/07/03 07:33:06;;;;;;;8.73;3.00;;;26.20;42.40;;;;;;4987317;28;20476;-75
2023/07/03 07:35:36;;;;;;;5.53;2.57;;;26.10;42.40;;;;;;4972460;28;20530;-76
2023/07/03 07:38:05;;;;;;;7.53;2.80;;;26.10;42.40;;;;;;4972929;28;20432;-76
2023/07/03 07:40:33;;;;;;;4.40;2.80;;;26.10;42.40;;;;;;4983126;28;20483;-76
2023/07/03 07:43:01;;;;;;;6.03;2.23;;;26.20;42.60;;;;;;4983973;28;20432;-76
2023/07/03 07:45:29;;;;;;;3.50;2.50;;;26.20;42.50;;;;;;4976027;28;20474;-73
2023/07/03 07:47:57;;;;;;;2.43;2.10;;;26.30;42.40;;;;;;4978852;28;20512;-75
2023/07/03 07:50:27;;;;;;;7.17;2.90;;;26.30;42.40;;;;;;4987643;28;20447;-76
2023/07/03 07:52:59;;;;;;;5.43;2.53;;;26.40;42.40;;;;;;4975797;28;20430;-73
2023/07/03 07:55:28;;;;;;;4.70;2.50;;;26.50;42.90;;;;;;4973613;28;20444;-76
2023/07/03 07:57:55;;;;;;;5.63;2.67;;;26.60;42.20;;;;;;4979390;28;20417;-73
2023/07/03 08:00:23;;;;;;;2.80;2.37;;;26.60;42.20;;;;;;4972772;28;20450;-75
2023/07/03 08:02:51;;;;;;;5.37;2.23;;;26.60;42.10;;;;;;4978600;28;20442;-73
2023/07/03 08:05:20;;;;;;;3.43;2.20;;;26.70;42.10;;;;;;4978161;28;20466;-73
2023/07/03 08:07:48;;;;;;;3.57;2.40;;;26.80;42.40;;;;;;4980921;28;20509;-74
2023/07/03 08:10:17;;;;;;;4.73;2.60;;;26.90;42.20;;;;;;4985088;28;20541;-75
2023/07/03 08:12:46;;;;;;;8.37;3.00;;;27.10;42.00;;;;;;4980506;28;20450;-75
2023/07/03 08:15:14;;;;;;;3.20;2.17;;;27.30;41.80;;;;;;4991110;28;20557;-76
2023/07/03 08:17:42;;;;;;;6.00;2.63;;;27.20;41.60;;;;;;4976993;28;20439;-74
2023/07/03 08:20:12;;;;;;;5.57;2.67;;;27.20;41.70;;;;;;4979662;28;20502;-75
2023/07/03 08:22:39;;;;;;;8.73;2.90;;;27.10;41.80;;;;;;4980902;28;20424;-75
2023/07/03 08:25:09;;;;;;;7.10;3.20;;;27.00;41.90;;;;;;4990156;28;20503;-75
2023/07/03 08:27:38;;;;;;;4.10;2.37;;;27.00;42.00;;;;;;4987169;28;20582;-76
2023/07/03 08:30:07;;;;;;;2.83;2.10;;;27.00;42.00;;;;;;4982689;28;20460;-76
2023/07/03 08:32:35;;;;;;;3.90;2.30;;;27.00;42.10;;;;;;4988991;28;20528;-77
2023/07/03 08:35:03;;;;;;;3.13;1.90;;;26.90;42.10;;;;;;4991555;28;20465;-77
2023/07/03 08:37:34;;;;;;;3.90;2.50;;;26.90;42.20;;;;;;4987451;28;20435;-77
2023/07/03 08:40:02;;;;;;;3.80;2.63;;;26.90;42.30;;;;;;4988775;28;20416;-76
2023/07/03 08:42:32;;;;;;;6.70;2.90;;;26.90;42.20;;;;;;4992033;28;20459;-76
2023/07/03 08:45:02;;;;;;;4.57;3.10;;;26.90;42.40;;;;;;4987305;28;20552;-76
2023/07/03 08:47:30;;;;;;;5.47;2.63;;;26.90;42.30;;;;;;4989211;28;20524;-76
2023/07/03 08:49:58;;;;;;;6.23;2.93;;;26.80;42.30;;;;;;4989397;28;20456;-78
2023/07/03 08:52:28;;;;;;;7.23;3.03;;;26.70;42.50;;;;;;4994198;28;20437;-76
2023/07/03 08:54:56;;;;;;;4.80;3.17;;;26.70;42.60;;;;;;4994120;28;20469;-77
2023/07/03 08:57:24;;;;;;;7.67;3.30;;;26.70;42.60;;;;;;4984201;28;20539;-77
2023/07/03 08:59:53;;;;;;;5.50;3.03;;;26.70;42.90;;;;;;4993361;28;20952;-76
2023/07/03 09:02:26;;;;;;;5.40;2.90;;;26.80;42.80;;;;;;4993822;28;20976;-78
2023/07/03 09:05:03;;;;;;;5.73;3.10;;;26.90;42.80;;;;;;4982886;28;20491;-78
2023/07/03 09:07:33;;;;;;;5.33;3.57;;;27.00;42.90;;;;;;4993109;28;20447;-75
2023/07/03 09:10:04;;;;;;;6.13;2.90;;;27.10;43.00;;;;;;4989446;28;20549;-76
2023/07/03 09:12:34;;;;;;;4.00;3.00;;;27.30;42.80;;;;;;4985493;28;20913;-76
2023/07/03 09:15:05;;;;;;;4.63;2.97;;;27.40;42.60;;;;;;4986415;28;20892;-76
2023/07/03 09:17:34;;;;;;;5.50;3.23;;;27.70;42.50;;;;;;4980784;28;20519;-76
2023/07/03 09:20:03;;;;;;;5.43;3.20;;;27.90;42.50;;;;;;4982898;28;20404;-76
2023/07/03 09:22:34;;;;;;;6.83;3.03;;;28.00;42.20;;;;;;4977845;28;20516;-76
2023/07/03 09:25:03;;;;;;;4.10;3.37;;;28.10;42.20;;;;;;4980685;28;21098;-76
2023/07/03 09:27:31;;;;;;;3.63;3.13;;;28.20;42.40;;;;;;4982651;28;20405;-76
2023/07/03 09:30:02;;;;;;;5.30;3.10;;;28.40;42.60;;;;;;4978597;28;20485;-75
2023/07/03 09:32:31;;;;;;;5.00;2.57;;;28.70;42.60;;;;;;4987810;28;20465;-76
2023/07/03 09:35:11;;;;;;;5.57;2.90;;;29.00;42.30;;;;;;4977977;28;20444;-76
2023/07/03 09:37:40;;;;;;;3.10;2.90;;;29.00;41.80;;;;;;4993643;28;20474;-75
2023/07/03 09:40:12;;;;;;;4.80;3.37;;;29.00;41.70;;;;;;4973718;28;21172;-76
2023/07/03 09:42:40;;;;;;;4.80;2.53;;;28.90;41.70;;;;;;4987188;28;20413;-75
2023/07/03 09:45:13;;;;;;;4.23;3.00;;;28.80;41.90;;;;;;4983790;28;20536;-75
2023/07/03 09:47:41;;;;;;;3.43;2.77;;;28.60;42.10;;;;;;4986864;28;20436;-76
2023/07/03 09:50:11;;;;;;;4.30;2.80;;;28.50;42.40;;;;;;4975297;28;20463;-75
2023/07/03 09:52:43;;;;;;;3.47;3.17;;;28.40;42.70;;;;;;4974155;28;20447;-76
2023/07/03 09:55:30;;;;;;;4.37;3.47;;;28.20;42.70;;;;;;4988547;28;20428;-75
2023/07/03 09:57:57;;;;;;;9.83;2.90;;;28.10;42.90;;;;;;4986715;28;20498;-75
2023/07/03 10:00:26;;;;;;;3.10;2.80;;;28.00;43.10;;;;;;4979560;28;20439;-76
2023/07/03 10:02:55;;;;;;;3.67;3.03;;;28.00;43.30;;;;;;4985859;28;20480;-76
2023/07/03 10:05:30;;;;;;;3.70;2.90;;;28.00;43.50;;;;;;4983328;28;20553;-76
2023/07/03 10:08:02;;;;;;;5.30;3.20;;;28.00;43.40;;;;;;4988199;28;20788;-76
2023/07/03 10:10:33;;;;;;;5.30;3.17;;;28.00;43.40;;;;;;4990061;28;21000;-76
2023/07/03 10:13:06;;;;;;;3.30;2.60;;;27.90;43.50;;;;;;4983394;28;20499;-76
2023/07/03 10:15:35;;;;;;;4.17;2.63;;;27.90;43.50;;;;;;4985384;28;20526;-76
2023/07/03 10:18:05;;;;;;;2.70;2.50;;;27.90;43.60;;;;;;4995053;28;20439;-76
2023/07/03 10:20:36;;;;;;;3.33;2.90;;;27.80;43.60;;;;;;4990478;28;20459;-76
2023/07/03 10:23:05;;;;;;;3.30;2.77;;;27.90;43.80;;;;;;4988424;28;20424;-75
2023/07/03 10:25:34;;;;;;;5.17;2.80;;;27.90;43.70;;;;;;4985370;28;20567;-73
2023/07/03 10:28:06;;;;;;;5.47;2.90;;;28.10;43.60;;;;;;4987738;28;20507;-76
2023/07/03 10:30:35;;;;;;;4.43;3.10;;;28.20;44.20;;;;;;4992316;28;20472;-75
2023/07/03 10:33:06;;;;;;;3.17;2.30;;;28.60;43.70;;;;;;4985317;28;20937;-73
2023/07/03 10:35:35;;;;;;;3.83;3.00;;;28.90;43.30;;;;;;4978473;28;20465;-76
2023/07/03 10:38:05;;;;;;;3.40;3.10;;;29.20;43.00;;;;;;4988015;28;20456;-76
2023/07/03 10:40:36;;;;;;;2.60;2.40;;;29.30;42.60;;;;;;4987353;28;20448;-76
2023/07/03 10:43:04;;;;;;;4.10;2.80;;;29.50;42.60;;;;;;4983051;28;20540;-77
2023/07/03 10:45:33;;;;;;;3.60;2.63;;;29.40;42.60;;;;;;4990578;28;20499;-77
2023/07/03 10:48:03;;;;;;;2.87;2.53;;;29.40;42.50;;;;;;4996676;28;20444;-77
2023/07/03 10:50:33;;;;;;;5.33;2.70;;;29.40;42.60;;;;;;4992559;28;20572;-77
2023/07/03 10:53:07;;;;;;;3.20;2.33;;;29.40;42.50;;;;;;4985622;28;20496;-78
2023/07/03 10:55:37;;;;;;;3.73;2.80;;;29.30;42.40;;;;;;4986928;28;20559;-78
2023/07/03 10:58:07;;;;;;;5.63;3.13;;;29.20;42.50;;;;;;4991222;28;20890;-76
2023/07/03 11:00:46;;;;;;;3.30;2.37;;;29.00;43.20;;;;;;4979684;28;20508;-75
2023/07/03 11:03:18;;;;;;;4.80;2.40;;;29.00;43.00;;;;;;4991778;28;20416;-77
2023/07/03 11:05:48;;;;;;;3.73;2.03;;;29.00;43.20;;;;;;4991704;28;20469;-77
2023/07/03 11:08:22;;;;;;;4.67;2.50;;;29.00;43.00;;;;;;4985918;28;20461;-76
2023/07/03 11:10:55;;;;;;;2.60;2.00;;;29.10;43.00;;;;;;4989445;28;20469;-76
2023/07/03 11:13:25;;;;;;;2.87;2.67;;;29.10;42.80;;;;;;4984910;28;20424;-77
2023/07/03 11:15:55;;;;;;;2.87;2.20;;;29.20;42.80;;;;;;4990513;28;20834;-77
2023/07/03 11:18:30;;;;;;;2.60;2.40;;;29.30;42.90;;;;;;4997978;28;20423;-76
2023/07/03 11:21:06;;;;;;;2.30;2.10;;;29.30;42.60;;;;;;4989644;28;20495;-76
2023/07/03 11:23:41;;;;;;;2.53;1.80;;;29.30;42.70;;;;;;4991349;28;20498;-76
2023/07/03 11:26:12;;;;;;;3.60;2.10;;;29.30;42.70;;;;;;4987119;28;20432;-76
2023/07/03 11:28:43;;;;;;;1.80;1.70;;;29.80;42.90;;;;;;4978514;28;21042;-77
2023/07/03 11:31:14;;;;;;;15.23;2.40;;;30.90;42.30;;;;;;4987945;28;20895;-76
2023/07/03 11:33:42;;;;;;;2.30;2.20;;;32.00;40.20;;;;;;4989667;28;20515;-76
2023/07/03 11:36:39;;;;;;;3.50;2.13;;;32.30;38.60;;;;;;4992894;28;20552;-76
2023/07/03 11:39:27;;;;;;;3.93;1.77;;;32.10;39.10;;;;;;4997368;28;20465;-77
2023/07/03 11:42:11;;;;;;;2.37;2.10;;;32.40;39.90;;;;;;4978713;28;20548;-74
2023/07/03 11:44:43;;;;;;;2.73;1.80;;;33.40;38.80;;;;;;4980130;28;20455;-76
2023/07/03 11:47:12;;;;;;;3.63;2.00;;;33.10;37.40;;;;;;4987235;28;20915;-77
2023/07/03 11:49:43;;;;;;;3.90;2.10;;;33.20;38.40;;;;;;4991133;28;21017;-76
2023/07/03 11:52:12;;;;;;;1.83;1.73;;;33.30;37.80;;;;;;4989606;28;20525;-76
2023/07/03 11:54:41;;;;;;;3.27;2.13;;;33.10;37.60;;;;;;4990924;28;20515;-75
2023/07/03 11:57:10;;;;;;;2.83;2.10;;;32.70;38.10;;;;;;4980844;28;20555;-75
2023/07/03 11:59:39;;;;;;;2.03;1.90;;;32.70;38.70;;;;;;4984401;28;20465;-76
2023/07/03 12:02:46;;;;;;;2.80;2.10;;;33.60;39.00;;;;;;4984926;28;20446;-76
2023/07/03 12:05:53;;;;;;;2.60;1.80;;;34.60;37.70;;;;;;4985885;28;20461;-77
2023/07/03 12:08:42;;;;;;;2.50;2.10;;;34.70;38.00;;;;;;4991049;28;20448;-76
2023/07/03 12:11:12;;;;;;;2.30;2.10;;;34.80;37.70;;;;;;4984453;28;20562;-73
2023/07/03 12:13:51;;;;;;;2.30;2.13;;;34.40;37.00;;;;;;4982511;28;20477;-75
2023/07/03 12:16:38;;;;;;;2.17;2.00;;;34.20;36.40;;;;;;4988854;28;20453;-75
2023/07/03 12:19:07;;;;;;;4.33;1.87;;;33.80;36.60;;;;;;4987868;28;20449;-75
2023/07/03 12:21:37;;;;;;;5.33;2.07;;;33.20;37.30;;;;;;4977520;28;20476;-74
2023/07/03 12:24:20;;;;;;;3.47;2.20;;;32.70;38.00;;;;;;4986021;28;20498;-75
2023/07/03 12:27:00;;;;;;;2.80;2.00;;;32.20;38.60;;;;;;4985293;28;20483;-74
2023/07/03 12:29:28;;;;;;;2.17;2.00;;;31.80;39.30;;;;;;4977460;28;20873;-75
2023/07/03 12:31:58;;;;;;;4.93;1.60;;;31.60;39.90;;;;;;4983691;28;20503;-75
2023/07/03 12:34:26;;;;;;;1.80;1.70;;;32.00;40.60;;;;;;4974079;28;20483;-75
2023/07/03 12:36:59;;;;;;;3.20;2.00;;;31.90;39.90;;;;;;4976566;28;20481;-75
2023/07/03 12:39:29;;;;;;;3.70;2.03;;;31.80;39.70;;;;;;4980477;28;20444;-73
2023/07/03 12:42:07;;;;;;;2.80;1.93;;;31.60;39.90;;;;;;4982786;28;20976;-74
2023/07/03 12:44:35;;;;;;;5.03;2.17;;;31.30;40.30;;;;;;4977323;28;20462;-71
2023/07/03 12:47:07;;;;;;;4.40;1.97;;;31.10;40.60;;;;;;4989772;28;20825;-76
2023/07/03 12:49:47;;;;;;;2.27;1.97;;;30.80;40.90;;;;;;4990431;28;20445;-75
2023/07/03 12:52:15;;;;;;;6.70;2.00;;;30.60;41.40;;;;;;4991766;28;20894;-74
2023/07/03 12:54:43;;;;;;;3.87;1.90;;;30.40;41.70;;;;;;4983405;28;20464;-75
2023/07/03 12:57:13;;;;;;;7.33;2.20;;;30.30;41.90;;;;;;4989165;28;20553;-76
2023/07/03 12:59:46;;;;;;;3.27;2.23;;;30.10;41.80;;;;;;4990716;28;20400;-76
2023/07/03 13:02:17;;;;;;;5.33;2.10;;;30.00;42.10;;;;;;4981091;28;20496;-76
2023/07/03 13:04:45;;;;;;;3.47;1.93;;;29.90;42.50;;;;;;4986349;28;20470;-75